Time;durP1;ratioP1;P1;durP2;ratioP2;P2;SDS_P1;SDS_P2;PMS_P1;PMS_P2;Temp;Humidity;BMP_temperature;BMP_pressure;BME280_temperature;BME280_humidity;BME280_pressure;Samples;Min_cycle;Max_cycle;Signal;HPM_P1;HPM_P2
2021/12/21 00:01:05;;;;;;;35.30;17.13;;;;;;;-6.76;100.00;102361.25;10384150;28;20044;-83
2021/12/21 00:06:05;;;;;;;32.27;16.80;;;;;;;-6.93;100.00;102482.00;10384512;28;20045;-83
2021/12/21 00:11:06;;;;;;;31.40;17.43;;;;;;;-4.52;100.00;102816.25;10408422;28;20039;-84
2021/12/21 00:17:03;;;;;;;33.03;16.37;;;;;;;-6.10;100.00;102454.97;10424248;28;20413;-84
2021/12/21 00:26:37;;;;;;;33.70;18.10;;;;;;;-5.22;100.00;102608.00;10360034;28;20125;-83
2021/12/21 00:31:37;;;;;;;36.03;19.13;;;;;;;-7.86;100.00;102363.19;10328100;28;20038;-83
2021/12/21 00:36:38;;;;;;;39.23;19.37;;;;;;;-8.12;100.00;102141.22;10337811;28;20041;-83
2021/12/21 00:41:39;;;;;;;38.90;18.07;;;;;;;-4.98;100.00;102784.50;10355937;28;20417;-83
2021/12/21 00:46:39;;;;;;;38.90;19.47;;;;;;;-6.59;100.00;102474.44;10324623;28;20080;-83
2021/12/21 00:51:46;;;;;;;49.57;20.00;;;;;;;-5.23;100.00;102842.56;10348184;28;20092;-83
2021/12/21 00:56:47;;;;;;;57.83;19.20;;;;;;;-6.46;100.00;102550.34;10350453;28;20436;-83
2021/12/21 01:01:47;;;;;;;39.30;19.63;;;;;;;-4.45;100.00;102782.56;10373131;28;20084;-94
2021/12/21 01:07:01;;;;;;;46.50;21.67;;;;;;;-4.95;100.00;102725.19;10352252;28;20047;-93
2021/12/21 01:12:07;;;;;;;35.10;19.80;;;;;;;-8.31;100.00;102138.88;10387913;28;20064;-94
2021/12/21 01:27:28;;;;;;;39.07;20.80;;;;;;;-5.63;100.00;102762.00;10340407;28;20395;-83
2021/12/21 01:32:55;;;;;;;35.00;19.27;;;;;;;-9.31;100.00;102067.91;10329546;28;20046;-83
2021/12/21 01:43:38;;;;;;;40.30;21.47;;;;;;;-7.55;100.00;102427.09;10327619;28;20069;-93
2021/12/21 01:53:58;;;;;;;39.47;20.27;;;;;;;-9.86;100.00;101991.34;10347586;28;20529;-94
2021/12/21 01:58:58;;;;;;;44.10;22.67;;;;;;;-5.92;100.00;102622.63;10320255;28;20057;-93
2021/12/21 02:03:59;;;;;;;43.27;21.87;;;;;;;-7.96;100.00;102270.22;10337773;28;20065;-94
2021/12/21 02:08:59;;;;;;;38.27;20.13;;;;;;;-5.67;100.00;102578.88;10334486;28;20037;-93
2021/12/21 02:14:00;;;;;;;41.53;21.07;;;;;;;-8.04;100.00;102333.13;10334059;28;20038;-94
2021/12/21 02:19:14;;;;;;;40.27;20.77;;;;;;;-8.33;100.00;102386.56;10315897;28;20033;-83
2021/12/21 02:24:19;;;;;;;33.30;19.23;;;;;;;-8.42;100.00;102115.59;10351069;28;20089;-83
2021/12/21 02:29:28;;;;;;;33.13;14.68;;;;;;;-5.92;100.00;102603.84;10348867;28;20121;-83
2021/12/21 02:34:28;;;;;;;30.90;18.67;;;;;;;-8.10;100.00;102374.47;10333794;28;20198;-83
2021/12/21 02:39:29;;;;;;;39.67;18.90;;;;;;;-7.71;100.00;102330.09;10335097;28;20111;-93
2021/12/21 02:44:30;;;;;;;35.87;19.40;;;;;;;-7.79;100.00;102289.63;10357204;28;20030;-93
2021/12/21 02:49:30;;;;;;;38.27;19.53;;;;;;;-6.06;100.00;102767.53;10366277;28;20025;-93
2021/12/21 02:54:31;;;;;;;39.03;20.37;;;;;;;-8.99;100.00;102108.56;10333962;28;20034;-93
2021/12/21 02:59:31;;;;;;;32.43;19.17;;;;;;;-6.61;100.00;102513.88;10325862;28;20037;-83
2021/12/21 03:04:32;;;;;;;35.57;17.57;;;;;;;-4.41;100.00;102883.56;10349536;28;20124;-94
2021/12/21 03:14:39;;;;;;;34.07;18.17;;;;;;;-7.89;100.00;102312.59;10347440;28;20050;-94
2021/12/21 03:19:40;;;;;;;25.77;16.23;;;;;;;-6.09;100.00;102513.03;10315199;28;20034;-94
2021/12/21 03:24:43;;;;;;;30.77;15.07;;;;;;;-6.51;100.00;102552.44;10356787;28;20099;-93
2021/12/21 03:29:46;;;;;;;;;;;;;;;-4.54;100.00;102777.88;10373957;28;20051;-94
2021/12/21 03:34:46;;;;;;;29.87;17.20;;;;;;;-9.77;100.00;102134.69;10390202;28;19919;-93
2021/12/21 03:39:49;;;;;;;33.43;17.20;;;;;;;-7.16;100.00;102438.88;10401757;28;20132;-93
2021/12/21 03:44:50;;;;;;;37.53;16.93;;;;;;;-6.85;100.00;102498.44;10373914;28;20037;-93
2021/12/21 03:49:52;;;;;;;24.07;15.43;;;;;;;-4.52;100.00;102900.44;10372063;28;20091;-93
2021/12/21 03:54:55;;;;;;;35.70;16.53;;;;;;;-6.28;100.00;102521.47;10371419;28;20044;-93
2021/12/21 03:59:56;;;;;;;29.77;16.53;;;;;;;-7.34;100.00;102407.94;10371103;28;20075;-94
2021/12/21 04:04:58;;;;;;;30.27;16.27;;;;;;;-8.92;100.00;102194.44;10375692;28;20045;-93
2021/12/21 04:09:59;;;;;;;32.53;17.50;;;;;;;-7.13;100.00;102612.66;10372299;28;20049;-94
2021/12/21 04:15:03;;;;;;;30.77;16.87;;;;;;;-4.67;100.00;102926.53;10370203;28;20036;-93
2021/12/21 04:20:03;;;;;;;31.80;16.10;;;;;;;-6.19;100.00;102691.53;10370647;28;20547;-93
2021/12/21 04:25:05;;;;;;;32.80;16.87;;;;;;;-6.13;100.00;102573.19;10369651;28;20103;-93
2021/12/21 04:30:05;;;;;;;33.07;15.90;;;;;;;-8.04;100.00;102295.69;10370228;28;20045;-95
2021/12/21 04:35:06;;;;;;;35.93;16.53;;;;;;;-7.75;100.00;102382.06;10369038;28;20093;-94
2021/12/21 04:40:13;;;;;;;27.97;16.93;;;;;;;-7.27;100.00;102510.13;10376565;28;20128;-83
2021/12/21 04:45:13;;;;;;;35.50;17.27;;;;;;;-8.66;100.00;102234.66;10425138;28;20031;-83
2021/12/21 04:50:14;;;;;;;32.63;17.83;;;;;;;-7.19;100.00;102415.00;10423494;28;20040;-83
2021/12/21 04:55:14;;;;;;;30.60;16.13;;;;;;;-8.24;100.00;102371.78;10382446;28;20034;-83
2021/12/21 05:00:15;;;;;;;27.97;16.17;;;;;;;-7.46;100.00;102339.19;10367081;28;20037;-93
2021/12/21 05:05:16;;;;;;;30.60;17.57;;;;;;;-5.55;100.00;102767.72;10385949;28;20037;-92
2021/12/21 05:10:18;;;;;;;31.33;17.57;;;;;;;-5.82;100.00;102597.88;10394098;28;20045;-93
2021/12/21 05:15:19;;;;;;;25.00;16.27;;;;;;;-6.45;100.00;102514.53;10368441;28;20041;-93
2021/12/21 05:20:19;;;;;;;36.83;16.43;;;;;;;-7.12;100.00;102557.31;10382478;28;20045;-82
2021/12/21 05:25:20;;;;;;;26.90;14.00;;;;;;;-6.05;100.00;102645.06;10383043;28;20107;-95
2021/12/21 05:30:22;;;;;;;32.33;14.93;;;;;;;-6.45;100.00;102608.31;10366861;28;20037;-94
2021/12/21 05:35:23;;;;;;;28.97;17.10;;;;;;;-8.49;100.00;102332.41;10368143;28;20092;-94
2021/12/21 05:40:30;;;;;;;27.30;15.30;;;;;;;-8.40;100.00;102364.72;10386606;28;20025;-93
2021/12/21 05:45:31;;;;;;;26.00;16.80;;;;;;;-8.69;100.00;102253.53;10390329;28;20032;-84
2021/12/21 05:50:31;;;;;;;25.40;15.87;;;;;;;-8.20;100.00;102322.56;10370445;28;20052;-91
2021/12/21 05:55:32;;;;;;;35.63;16.73;;;;;;;-5.00;100.00;102897.44;10402029;28;20044;-89
2021/12/21 06:00:33;;;;;;;25.87;14.33;;;;;;;-11.60;100.00;101685.25;10381679;28;20084;-92
2021/12/21 06:05:33;;;;;;;25.17;14.30;;;;;;;-8.17;100.00;102199.44;10382733;28;20029;-93
2021/12/21 06:10:38;;;;;;;30.57;13.70;;;;;;;-9.90;100.00;101918.75;10382888;28;20121;-94
2021/12/21 06:26:18;;;;;;;25.30;13.80;;;;;;;-8.46;100.00;102397.16;10386716;28;20038;-90
2021/12/21 06:31:18;;;;;;;27.50;13.83;;;;;;;-7.43;100.00;102412.09;10397003;28;20468;-85
2021/12/21 06:36:19;;;;;;;26.37;13.60;;;;;;;-8.97;100.00;102156.47;10394039;28;20034;-86
2021/12/21 06:41:20;;;;;;;28.13;14.83;;;;;;;-8.63;100.00;102375.97;10377972;28;20057;-86
2021/12/21 06:51:47;;;;;;;25.27;12.00;;;;;;;-10.28;100.00;102020.47;10403259;28;20033;-86
2021/12/21 06:56:48;;;;;;;28.63;13.07;;;;;;;-6.98;100.00;102500.22;10387806;28;20033;-86
2021/12/21 07:01:49;;;;;;;20.73;12.53;;;;;;;-6.53;100.00;102554.38;10369499;28;20080;-86
2021/12/21 07:06:51;;;;;;;24.10;13.77;;;;;;;-9.07;100.00;102352.78;10396612;28;20536;-86
2021/12/21 07:12:12;;;;;;;21.97;13.30;;;;;;;-7.01;100.00;102545.91;10401239;28;20065;-86
2021/12/21 07:22:32;;;;;;;27.60;13.93;;;;;;;-10.15;100.00;101978.00;10397003;28;20127;-86
2021/12/21 07:27:36;;;;;;;22.73;11.40;;;;;;;-5.22;100.00;102889.94;10358801;28;20497;-91
2021/12/21 07:32:36;;;;;;;23.80;13.10;;;;;;;-7.77;100.00;102501.63;10359266;28;20041;-91
2021/12/21 07:37:37;;;;;;;23.13;13.47;;;;;;;-5.77;100.00;102708.41;10357235;28;20029;-91
2021/12/21 07:42:37;;;;;;;26.53;13.73;;;;;;;-5.70;100.00;102777.66;10378901;28;20119;-91
2021/12/21 07:47:38;;;;;;;26.63;13.60;;;;;;;-9.78;100.00;102080.53;10420323;28;20504;-91
2021/12/21 07:52:39;;;;;;;27.53;14.73;;;;;;;-7.84;100.00;102386.19;10410445;28;20029;-86
2021/12/21 07:57:40;;;;;;;27.40;15.93;;;;;;;-12.39;100.00;101723.44;10391215;28;20033;-86
2021/12/21 08:02:40;;;;;;;26.07;13.57;;;;;;;-6.96;100.00;102472.38;10407200;28;20120;-86
2021/12/21 08:07:49;;;;;;;27.87;15.20;;;;;;;-6.67;100.00;102539.22;10409561;28;20029;-91
2021/12/21 08:12:50;;;;;;;27.30;15.77;;;;;;;-11.82;100.00;101754.72;10396749;28;20045;-91
2021/12/21 08:17:51;;;;;;;24.30;14.70;;;;;;;-8.41;100.00;102228.59;10396812;28;20063;-90
2021/12/21 08:22:51;;;;;;;24.37;14.37;;;;;;;-6.38;100.00;102552.53;10387222;28;20072;-91
2021/12/21 08:27:52;;;;;;;26.77;15.00;;;;;;;-9.39;100.00;102067.53;10355378;28;20511;-90
2021/12/21 08:32:53;;;;;;;37.90;16.90;;;;;;;-4.86;100.00;102861.56;10368640;28;20052;-91
2021/12/21 08:38:00;;;;;;;28.30;13.43;;;;;;;-5.86;100.00;102596.38;10352175;28;20397;-92
2021/12/21 08:43:01;;;;;;;23.87;13.33;;;;;;;-5.26;100.00;102772.97;10354003;28;20032;-91
2021/12/21 08:48:02;;;;;;;23.13;13.47;;;;;;;-6.49;100.00;102545.19;10336029;28;20446;-93
2021/12/21 08:53:03;;;;;;;25.37;13.20;;;;;;;-8.08;100.00;102311.09;10313040;28;20038;-93
2021/12/21 08:58:04;;;;;;;22.27;11.93;;;;;;;-7.78;100.00;102324.28;10312037;28;20129;-92
2021/12/21 09:03:04;;;;;;;25.10;12.53;;;;;;;-6.94;100.00;102445.50;10337888;28;20038;-92
2021/12/21 09:08:05;;;;;;;23.63;12.83;;;;;;;-12.15;100.00;101628.31;10311604;28;20481;-91
2021/12/21 09:13:06;;;;;;;25.03;11.63;;;;;;;-8.73;100.00;102314.25;10310875;28;20056;-92
2021/12/21 09:18:06;;;;;;;22.47;10.77;;;;;;;-6.23;100.00;102548.81;10328406;28;20171;-92
2021/12/21 09:23:07;;;;;;;21.97;12.73;;;;;;;-7.41;100.00;102390.59;10325095;28;20128;-85
2021/12/21 09:28:07;;;;;;;27.27;11.90;;;;;;;-8.22;100.00;102105.38;10338983;28;20050;-83
2021/12/21 09:33:08;;;;;;;30.17;12.73;;;;;;;-7.75;100.00;102350.84;10306374;28;20521;-84
2021/12/21 09:38:08;;;;;;;24.73;11.83;;;;;;;-7.99;100.00;102229.47;10324210;28;20111;-92
2021/12/21 09:43:10;;;;;;;18.17;9.70;;;;;;;-5.56;100.00;102524.50;10310783;28;20030;-93
2021/12/21 09:48:11;;;;;;;21.00;11.17;;;;;;;-5.61;100.00;102601.75;10311847;28;20136;-92
2021/12/21 09:53:12;;;;;;;20.27;10.83;;;;;;;-6.25;100.00;102456.06;10327030;28;20391;-93
2021/12/21 09:58:12;;;;;;;22.60;9.20;;;;;;;-6.26;100.00;102337.28;10329374;28;20544;-93
2021/12/21 10:03:14;;;;;;;21.77;9.57;;;;;;;-5.18;100.00;102581.78;10312306;28;20057;-92
2021/12/21 10:08:17;;;;;;;18.00;10.13;;;;;;;-7.13;100.00;102245.97;10310629;28;20454;-85
2021/12/21 10:13:19;;;;;;;12.73;7.63;;;;;;;-4.48;100.00;102648.38;10322251;28;20041;-85
2021/12/21 10:18:27;;;;;;;16.13;8.40;;;;;;;-5.18;100.00;102469.03;10306041;28;20045;-85
2021/12/21 10:23:30;;;;;;;16.53;7.70;;;;;;;-5.56;100.00;102497.66;10315986;28;20088;-94
2021/12/21 10:28:35;;;;;;;14.17;8.13;;;;;;;-2.68;100.00;102783.72;10319290;28;20077;-93
2021/12/21 10:33:36;;;;;;;15.63;7.03;;;;;;;-5.34;100.00;102437.06;10357743;28;20540;-92
2021/12/21 10:38:48;;;;;;;19.37;8.00;;;;;;;-6.37;100.00;102260.28;10320123;28;20030;-92
2021/12/21 10:44:05;;;;;;;11.33;7.67;;;;;;;-3.91;100.00;102486.25;10319561;28;20026;-94
2021/12/21 10:49:13;;;;;;;20.93;7.57;;;;;;;-2.11;100.00;102773.81;10334341;28;20077;-91
2021/12/21 10:54:14;;;;;;;13.07;7.17;;;;;;;-3.64;100.00;102641.19;10333426;28;20502;-90
2021/12/21 10:59:14;;;;;;;18.47;7.33;;;;;;;-6.53;100.00;102050.69;10320755;28;20041;-86
2021/12/21 11:04:17;;;;;;;19.13;7.90;;;;;;;-7.13;100.00;102074.66;10353017;28;20478;-86
2021/12/21 11:09:28;;;;;;;11.07;6.13;;;;;;;-2.59;100.00;102630.28;10348466;28;20050;-83
2021/12/21 11:14:29;;;;;;;10.47;5.50;;;;;;;-6.85;100.00;101895.97;10370964;28;20061;-91
2021/12/21 11:19:30;;;;;;;16.50;7.77;;;;;;;-5.12;100.00;102174.03;10353710;28;20037;-84
2021/12/21 11:24:30;;;;;;;12.37;5.63;;;;;;;-2.78;100.00;102647.94;10351662;28;20045;-83
2021/12/21 11:29:31;;;;;;;14.40;4.80;;;;;;;-4.21;100.00;102303.09;10352971;28;20084;-91
2021/12/21 11:34:34;;;;;;;8.70;4.87;;;;;;;-3.69;100.00;102325.78;10351631;28;20478;-91
2021/12/21 11:39:35;;;;;;;11.17;4.33;;;;;;;-0.45;100.00;102861.75;10330951;28;20041;-92
2021/12/21 11:45:15;;;;;;;9.73;4.60;;;;;;;-0.35;100.00;102694.00;10354977;28;20095;-91
2021/12/21 11:50:15;;;;;;;7.83;3.47;;;;;;;-1.46;100.00;102557.78;10260660;28;20076;-92
2021/12/21 11:55:17;;;;;;;10.20;3.30;;;;;;;-5.30;100.00;102078.81;10328191;28;20397;-86
2021/12/21 12:00:22;;;;;;;8.30;3.27;;;;;;;-6.06;100.00;101656.69;10327726;28;20038;-90
2021/12/21 12:05:28;;;;;;;7.23;2.83;;;;;;;-5.91;100.00;101755.47;10328668;28;20077;-85
2021/12/21 12:10:28;;;;;;;;;;;;;;;0.18;100.00;102667.47;10327238;28;20034;-86
2021/12/21 12:15:29;;;;;;;5.47;2.40;;;;;;;-2.93;100.00;102199.13;10359939;28;20285;-92
2021/12/21 12:20:30;;;;;;;9.77;2.87;;;;;;;-1.62;100.00;102380.84;10311047;28;20046;-94
2021/12/21 12:25:30;;;;;;;7.77;2.73;;;;;;;0.25;100.00;102837.56;10347420;28;20048;-87
2021/12/21 12:30:31;;;;;;;7.07;3.37;;;;;;;-3.92;100.00;102147.38;10368194;28;20128;-93
2021/12/21 12:35:33;;;;;;;6.97;3.43;;;;;;;-3.78;100.00;102159.66;10366823;28;20026;-88
2021/12/21 12:40:42;;;;;;;5.13;2.90;;;;;;;-2.19;100.00;102305.91;10367440;28;20041;-88
2021/12/21 12:46:03;;;;;;;8.63;4.00;;;;;;;-1.58;100.00;102354.44;10377568;28;20082;-91
2021/12/21 12:51:07;;;;;;;7.53;2.90;;;;;;;-0.94;100.00;102517.19;10383772;28;20091;-93
2021/12/21 12:56:10;;;;;;;9.33;3.00;;;;;;;-4.63;100.00;101819.09;10368601;28;20049;-92
2021/12/21 13:01:19;;;;;;;7.90;3.50;;;;;;;-2.64;100.00;101801.13;10367475;28;20389;-93
2021/12/21 13:06:27;;;;;;;5.67;3.13;;;;;;;-0.43;100.00;102240.97;10370360;28;20429;-88
2021/12/21 13:11:30;;;;;;;9.75;3.35;;;;;;;-0.47;100.00;102074.53;10381181;28;20513;-88
2021/12/21 13:16:32;;;;;;;9.05;3.60;;;;;;;0.55;100.00;101967.56;10394909;28;20091;-92
2021/12/21 13:21:47;;;;;;;7.38;2.72;;;;;;;1.77;100.00;102030.50;10388139;28;20100;-92
2021/12/21 13:26:54;;;;;;;5.50;3.95;;;;;;;4.31;100.00;102511.22;10392643;28;20056;-92
2021/12/21 13:31:56;;;;;;;8.32;3.33;;;;;;;3.67;100.00;102201.41;10388368;28;20505;-91
2021/12/21 13:36:58;;;;;;;8.55;4.40;;;;;;;-0.09;100.00;101876.81;10385037;28;20492;-88
2021/12/21 13:42:01;;;;;;;7.75;3.60;;;;;;;2.39;100.00;102538.25;10413998;28;20033;-91
2021/12/21 13:47:25;;;;;;;8.50;3.92;;;;;;;0.04;100.00;102210.25;10390163;28;20033;-91
2021/12/21 13:52:28;;;;;;;7.80;3.80;;;;;;;-2.36;100.00;102005.31;10407021;28;20037;-94
2021/12/21 13:57:29;;;;;;;9.47;4.27;;;;;;;-4.61;100.00;101819.81;10399433;28;20037;-91
2021/12/21 14:02:35;;;;;;;11.37;5.13;;;;;;;-1.71;100.00;102434.84;10424516;28;20038;-89
2021/12/21 14:07:40;;;;;;;9.90;4.57;;;;;;;-4.15;100.00;101921.56;10441225;28;20091;-91
2021/12/21 14:12:41;;;;;;;8.67;4.63;;;;;;;-2.15;100.00;102307.34;10415951;28;20035;-91
2021/12/21 14:17:41;;;;;;;9.47;5.00;;;;;;;-5.68;100.00;101788.44;10405118;28;20060;-88
2021/12/21 14:22:44;;;;;;;16.40;6.33;;;;;;;-4.06;100.00;101989.84;10428809;28;20041;-88
2021/12/21 14:27:45;;;;;;;11.97;4.20;;;;;;;-3.63;100.00;102182.63;10392919;28;20077;-88
2021/12/21 14:33:07;;;;;;;9.73;4.47;;;;;;;-1.31;100.00;102480.78;10356264;28;20120;-91
2021/12/21 14:38:12;;;;;;;7.63;4.30;;;;;;;-3.92;100.00;102209.28;10326852;28;20040;-87
2021/12/21 14:43:25;;;;;;;11.63;5.65;;;;;;;-4.64;100.00;102038.59;10321004;28;20040;-91
2021/12/21 14:48:28;;;;;;;9.77;6.17;;;;;;;-3.04;100.00;102426.34;10337411;28;20033;-90
2021/12/21 14:53:39;;;;;;;10.47;6.23;;;;;;;-5.91;100.00;101953.06;10360862;28;20125;-88
2021/12/21 14:58:40;;;;;;;16.47;6.77;;;;;;;-2.07;100.00;102755.50;10379495;28;20037;-88
2021/12/21 15:03:40;;;;;;;13.00;6.13;;;;;;;-3.82;100.00;102412.03;10359402;28;20077;-87
2021/12/21 15:08:41;;;;;;;13.07;6.60;;;;;;;-6.27;100.00;101905.88;10356863;28;20446;-87
2021/12/21 15:13:42;;;;;;;13.80;7.93;;;;;;;-8.49;100.00;101713.72;10367362;28;20489;-87
2021/12/21 15:18:42;;;;;;;18.43;8.37;;;;;;;-6.99;100.00;101947.00;10313155;28;20141;-89
2021/12/21 15:23:45;;;;;;;17.47;8.50;;;;;;;-8.13;100.00;101779.63;10313434;28;20038;-87
2021/12/21 15:28:46;;;;;;;17.23;8.30;;;;;;;-3.30;100.00;102767.88;10330138;28;20585;-87
2021/12/21 15:33:46;;;;;;;19.23;7.83;;;;;;;-4.15;100.00;102517.78;10345107;28;20033;-85
2021/12/21 15:38:47;;;;;;;16.70;8.37;;;;;;;-10.38;100.00;101437.19;10352849;28;20136;-95
2021/12/21 15:43:48;;;;;;;18.47;11.00;;;;;;;-6.98;100.00;102221.78;10344644;28;20029;-86
2021/12/21 15:48:48;;;;;;;17.13;8.77;;;;;;;-6.86;100.00;102070.97;10364808;28;20194;-93
2021/12/21 15:53:49;;;;;;;19.93;9.87;;;;;;;-4.83;100.00;102412.69;10316054;28;20039;-93
2021/12/21 15:58:49;;;;;;;23.53;10.73;;;;;;;-10.96;100.00;101534.19;10333541;28;20401;-86
2021/12/21 16:03:50;;;;;;;24.13;11.90;;;;;;;-8.24;100.00;101830.31;10330946;28;20042;-86
2021/12/21 16:08:50;;;;;;;20.83;11.17;;;;;;;-5.72;100.00;102261.78;10318894;28;20386;-93
2021/12/21 16:13:51;;;;;;;24.27;12.37;;;;;;;-4.92;100.00;102598.72;10314932;28;20069;-90
2021/12/21 16:18:52;;;;;;;25.87;14.57;;;;;;;-7.15;100.00;102071.25;10348368;28;20497;-85
2021/12/21 16:23:53;;;;;;;26.47;14.30;;;;;;;-6.67;100.00;102324.09;10351327;28;20041;-85
2021/12/21 16:28:54;;;;;;;29.70;15.67;;;;;;;-6.70;100.00;102173.34;10330016;28;20180;-85
2021/12/21 16:33:55;;;;;;;32.03;15.67;;;;;;;-10.57;100.00;101677.09;10336270;28;20167;-86
2021/12/21 16:38:56;;;;;;;32.33;16.27;;;;;;;-11.70;100.00;101392.72;10349781;28;20109;-86
2021/12/21 16:44:01;;;;;;;28.47;16.63;;;;;;;-5.63;100.00;102466.84;10365496;28;20034;-86
2021/12/21 16:49:03;;;;;;;32.90;17.17;;;;;;;-7.53;100.00;102147.00;10367010;28;20033;-85
2021/12/21 16:54:04;;;;;;;34.50;18.13;;;;;;;-4.78;100.00;102483.03;10349627;28;20041;-84
2021/12/21 16:59:06;;;;;;;33.37;19.03;;;;;;;-4.36;100.00;102513.06;10333248;28;20041;-85
2021/12/21 17:04:06;;;;;;;34.20;19.27;;;;;;;-7.10;100.00;102173.47;10321075;28;20394;-84
2021/12/21 17:09:07;;;;;;;31.83;19.50;;;;;;;-5.21;100.00;102529.16;10340842;28;20036;-85
2021/12/21 17:14:08;;;;;;;34.70;20.43;;;;;;;-8.03;100.00;101982.06;10324265;28;20405;-84
2021/12/21 17:19:08;;;;;;;39.20;20.97;;;;;;;-5.66;100.00;102477.81;10324058;28;20544;-85
2021/12/21 17:24:08;;;;;;;38.37;22.00;;;;;;;-5.40;100.00;102389.19;10355601;28;20050;-85
2021/12/21 17:29:09;;;;;;;43.37;23.50;;;;;;;-8.04;100.00;102023.09;10323584;28;20050;-85
2021/12/21 17:34:10;;;;;;;44.17;23.47;;;;;;;-7.12;100.00;102247.66;10306818;28;20128;-85
2021/12/21 17:39:10;;;;;;;42.50;22.93;;;;;;;-7.28;100.00;102188.13;10323368;28;20523;-85
2021/12/21 17:44:11;;;;;;;45.80;23.50;;;;;;;-5.38;100.00;102522.31;10323201;28;20125;-85
2021/12/21 17:49:11;;;;;;;44.63;25.13;;;;;;;-5.22;100.00;102596.41;10323038;28;20133;-86
2021/12/21 17:54:13;;;;;;;45.63;23.70;;;;;;;-4.70;100.00;102603.41;10306916;28;20036;-85
2021/12/21 17:59:15;;;;;;;52.40;27.07;;;;;;;-5.32;100.00;102602.41;10323486;28;20431;-85
2021/12/21 18:04:15;;;;;;;59.00;30.27;;;;;;;-6.27;100.00;102515.13;10323354;28;20042;-86
2021/12/21 18:09:16;;;;;;;68.53;33.40;;;;;;;-8.32;100.00;101972.41;10322842;28;20457;-84
2021/12/21 18:14:16;;;;;;;78.33;34.63;;;;;;;-8.43;100.00;102043.56;10326606;28;20040;-84
2021/12/21 18:19:17;;;;;;;67.30;34.03;;;;;;;-8.68;100.00;102009.63;10319781;28;20117;-85
2021/12/21 18:24:17;;;;;;;69.70;33.80;;;;;;;-7.35;100.00;102267.97;10322223;28;20095;-85
2021/12/21 18:29:18;;;;;;;58.20;31.07;;;;;;;-7.36;100.00;102309.06;10347863;28;20050;-85
2021/12/21 18:34:18;;;;;;;61.70;33.60;;;;;;;-10.39;100.00;101821.50;10326377;28;20398;-85
2021/12/21 18:39:23;;;;;;;63.47;32.13;;;;;;;-9.24;100.00;101965.22;10324163;28;20119;-84
2021/12/21 18:44:23;;;;;;;59.60;31.53;;;;;;;-7.91;100.00;102195.06;10340618;28;20109;-85
2021/12/21 18:49:24;;;;;;;62.07;33.40;;;;;;;-8.23;100.00;102115.19;10353962;28;20490;-86
2021/12/21 18:54:24;;;;;;;66.03;34.53;;;;;;;-6.74;100.00;102407.53;10335741;28;20117;-85
2021/12/21 18:59:25;;;;;;;65.23;35.17;;;;;;;-5.20;100.00;102541.63;10345343;28;20033;-85
2021/12/21 19:04:26;;;;;;;57.63;32.50;;;;;;;-5.91;100.00;102482.22;10328913;28;20034;-85
2021/12/21 19:09:26;;;;;;;60.10;31.23;;;;;;;-6.17;100.00;102368.78;10328660;28;20066;-85
2021/12/21 19:14:27;;;;;;;65.47;33.97;;;;;;;-4.87;100.00;102572.38;10328601;28;20152;-85
2021/12/21 19:19:27;;;;;;;63.87;34.43;;;;;;;-5.07;100.00;102643.66;10344512;28;20066;-85
2021/12/21 19:24:28;;;;;;;66.93;35.50;;;;;;;-5.35;100.00;102472.94;10312171;28;20108;-84
2021/12/21 19:29:29;;;;;;;71.27;35.17;;;;;;;-4.79;100.00;102578.06;10327819;28;20045;-85
2021/12/21 19:34:29;;;;;;;71.90;36.77;;;;;;;-9.00;100.00;102018.78;10328676;28;20077;-85
2021/12/21 19:39:30;;;;;;;73.30;37.47;;;;;;;-8.33;100.00;102104.28;10311573;28;20121;-86
2021/12/21 19:44:31;;;;;;;66.20;37.33;;;;;;;-6.82;100.00;102382.22;10327540;28;20386;-86
2021/12/21 19:49:32;;;;;;;80.80;40.03;;;;;;;-5.87;100.00;102472.13;10311128;28;20029;-85
2021/12/21 19:54:32;;;;;;;72.80;39.90;;;;;;;-6.07;100.00;102444.06;10326457;28;20034;-86
2021/12/21 19:59:33;;;;;;;76.73;38.83;;;;;;;-6.80;100.00;102287.44;10310860;28;20034;-85
2021/12/21 20:04:33;;;;;;;65.43;39.17;;;;;;;-7.16;100.00;102261.38;10326768;28;20394;-86
2021/12/21 20:09:34;;;;;;;76.97;40.00;;;;;;;-7.54;100.00;102190.78;10326648;28;20037;-85
2021/12/21 20:14:36;;;;;;;79.07;37.97;;;;;;;-5.89;100.00;102484.78;10311885;28;20029;-85
2021/12/21 20:19:38;;;;;;;77.03;38.00;;;;;;;-8.19;100.00;102089.13;10342608;28;20468;-85
2021/12/21 20:24:38;;;;;;;72.53;40.10;;;;;;;-6.89;100.00;102365.72;10325871;28;20073;-84
2021/12/21 20:29:40;;;;;;;76.97;39.13;;;;;;;-9.39;100.00;102060.38;10326418;28;20575;-87
2021/12/21 20:34:41;;;;;;;79.13;38.50;;;;;;;-8.10;100.00;102256.88;10325722;28;20397;-86
2021/12/21 20:39:42;;;;;;;76.97;39.33;;;;;;;-4.68;100.00;102677.56;10341462;28;20052;-85
2021/12/21 20:44:43;;;;;;;66.70;38.63;;;;;;;-6.20;100.00;102432.47;10341516;28;20026;-85
2021/12/21 20:49:44;;;;;;;71.77;37.67;;;;;;;-4.77;100.00;102713.16;10324808;28;20042;-85
2021/12/21 20:54:45;;;;;;;75.00;38.17;;;;;;;-9.25;100.00;102032.00;10324787;28;20030;-85
2021/12/21 20:59:46;;;;;;;73.53;38.13;;;;;;;-5.92;100.00;102517.19;10324590;28;20034;-85
2021/12/21 21:04:46;;;;;;;70.83;37.73;;;;;;;-7.10;100.00;102260.94;10350181;28;20052;-85
2021/12/21 21:09:47;;;;;;;66.10;37.93;;;;;;;-4.55;100.00;102714.31;10328110;28;20121;-86
2021/12/21 21:14:47;;;;;;;72.67;37.90;;;;;;;-4.80;100.00;102686.50;10333797;28;20068;-86
2021/12/21 21:19:48;;;;;;;70.70;35.87;;;;;;;-4.58;100.00;102709.16;10318398;28;20113;-85
2021/12/21 21:24:48;;;;;;;75.43;38.23;;;;;;;-5.58;100.00;102729.50;10307681;28;20038;-85
2021/12/21 21:29:49;;;;;;;75.73;36.00;;;;;;;-7.88;100.00;102220.72;10355946;28;20120;-88
2021/12/21 21:34:49;;;;;;;65.33;36.17;;;;;;;-5.55;100.00;102593.28;10317565;28;20045;-88
2021/12/21 21:39:50;;;;;;;65.90;36.70;;;;;;;-8.55;100.00;102039.91;10308428;28;20069;-86
2021/12/21 21:44:50;;;;;;;70.27;35.60;;;;;;;-8.76;100.00;102069.72;10340802;28;20034;-90
2021/12/21 21:49:51;;;;;;;74.03;35.83;;;;;;;-8.06;100.00;102196.94;10309103;28;20466;-90
2021/12/21 21:54:51;;;;;;;70.53;35.07;;;;;;;-7.86;100.00;102427.34;10309694;28;20077;-90
2021/12/21 21:59:52;;;;;;;69.10;34.20;;;;;;;-8.16;100.00;102292.03;10309228;28;20048;-86
2021/12/21 22:04:52;;;;;;;66.87;33.87;;;;;;;-6.33;100.00;102674.53;10324138;28;20041;-86
2021/12/21 22:09:53;;;;;;;68.87;34.93;;;;;;;-8.94;100.00;102268.38;10323524;28;20058;-85
2021/12/21 22:14:54;;;;;;;68.13;33.33;;;;;;;-8.87;100.00;102029.50;10307275;28;20026;-86
2021/12/21 22:19:55;;;;;;;75.00;33.80;;;;;;;-4.66;100.00;102691.75;10311871;28;20469;-89
2021/12/21 22:24:55;;;;;;;73.43;34.87;;;;;;;-11.54;100.00;101652.16;10332923;28;20069;-90
2021/12/21 22:29:56;;;;;;;60.33;30.90;;;;;;;-6.12;100.00;102515.91;10317550;28;20195;-90
2021/12/21 22:34:56;;;;;;;60.30;30.03;;;;;;;-7.14;100.00;102351.28;10316619;28;20474;-90
2021/12/21 22:39:57;;;;;;;75.13;35.13;;;;;;;-6.35;100.00;102514.78;10319838;28;20471;-89
2021/12/21 22:44:57;;;;;;;75.73;37.87;;;;;;;-6.62;100.00;102455.88;10331822;28;20041;-89
2021/12/21 22:49:58;;;;;;;72.70;35.73;;;;;;;-4.92;100.00;102938.09;10348669;28;20477;-90
2021/12/21 22:54:58;;;;;;;68.10;34.00;;;;;;;-8.41;100.00;102165.38;10315463;28;20379;-90
2021/12/21 22:59:59;;;;;;;61.27;31.40;;;;;;;-4.98;100.00;102859.69;10314433;28;20045;-86
2021/12/21 23:04:59;;;;;;;59.53;30.50;;;;;;;-8.35;100.00;102266.47;10329007;28;20072;-86
2021/12/21 23:10:00;;;;;;;66.73;30.27;;;;;;;-5.05;100.00;102675.78;10330308;28;20054;-86
2021/12/21 23:15:03;;;;;;;59.20;29.57;;;;;;;-6.37;100.00;102581.03;10329391;28;20088;-86
2021/12/21 23:20:04;;;;;;;56.83;27.13;;;;;;;-6.84;100.00;102465.34;10330697;28;20060;-86